sensor_id;sensor_type;location;lat;lon;timestamp;noise_LAeq;noise_LA_min;noise_LA_max;noise_LA01;noise_LA95
81666;Laerm;71083;51.796;10.952;2024-01-15T00:01:57;56.50;32.86;72.61;;
81666;Laerm;71083;51.796;10.952;2024-01-15T00:04:22;38.06;31.79;49.12;;
81666;Laerm;71083;51.796;10.952;2024-01-15T00:06:48;59.40;33.77;75.06;;
81666;Laerm;71083;51.796;10.952;2024-01-15T00:09:14;53.13;31.91;67.92;;
81666;Laerm;71083;51.796;10.952;2024-01-15T00:11:39;58.19;33.21;71.11;;
81666;Laerm;71083;51.796;10.952;2024-01-15T00:14:05;34.61;30.86;43.26;;
81666;Laerm;71083;51.796;10.952;2024-01-15T00:16:30;51.02;30.96;67.32;;
81666;Laerm;71083;51.796;10.952;2024-01-15T00:18:56;53.11;30.15;69.81;;
81666;Laerm;71083;51.796;10.952;2024-01-15T00:21:21;35.27;30.24;52.87;;
81666;Laerm;71083;51.796;10.952;2024-01-15T00:23:47;53.67;31.53;68.02;;
81666;Laerm;71083;51.796;10.952;2024-01-15T00:26:12;37.35;31.13;50.53;;
81666;Laerm;71083;51.796;10.952;2024-01-15T00:28:37;59.41;37.16;75.71;;
81666;Laerm;71083;51.796;10.952;2024-01-15T00:31:03;55.21;30.76;71.80;;
81666;Laerm;71083;51.796;10.952;2024-01-15T00:33:29;52.28;30.25;68.46;;
81666;Laerm;71083;51.796;10.952;2024-01-15T00:35:54;42.52;32.47;55.59;;
81666;Laerm;71083;51.796;10.952;2024-01-15T00:38:19;59.43;33.65;78.38;;
81666;Laerm;71083;51.796;10.952;2024-01-15T00:40:45;56.69;33.60;74.22;;
81666;Laerm;71083;51.796;10.952;2024-01-15T00:43:10;56.40;32.55;72.52;;
81666;Laerm;71083;51.796;10.952;2024-01-15T00:45:36;40.70;30.19;64.78;;
81666;Laerm;71083;51.796;10.952;2024-01-15T00:48:01;35.55;30.74;50.94;;
81666;Laerm;71083;51.796;10.952;2024-01-15T00:50:26;40.91;29.98;54.92;;
81666;Laerm;71083;51.796;10.952;2024-01-15T00:52:51;34.10;30.17;48.45;;
81666;Laerm;71083;51.796;10.952;2024-01-15T00:55:17;55.56;29.60;73.81;;
81666;Laerm;71083;51.796;10.952;2024-01-15T00:57:42;62.45;31.41;75.75;;
81666;Laerm;71083;51.796;10.952;2024-01-15T01:00:07;43.96;29.66;65.36;;
81666;Laerm;71083;51.796;10.952;2024-01-15T01:02:34;53.78;29.15;71.68;;
81666;Laerm;71083;51.796;10.952;2024-01-15T01:04:59;46.89;29.89;66.70;;
81666;Laerm;71083;51.796;10.952;2024-01-15T01:07:25;31.51;28.91;43.20;;
81666;Laerm;71083;51.796;10.952;2024-01-15T01:09:50;33.15;29.22;43.30;;
81666;Laerm;71083;51.796;10.952;2024-01-15T01:12:16;37.71;29.97;47.89;;
81666;Laerm;71083;51.796;10.952;2024-01-15T01:14:41;35.06;29.58;49.70;;
81666;Laerm;71083;51.796;10.952;2024-01-15T01:17:07;37.92;29.63;50.17;;
81666;Laerm;71083;51.796;10.952;2024-01-15T01:19:32;37.65;29.52;50.12;;
81666;Laerm;71083;51.796;10.952;2024-01-15T01:21:57;37.79;29.15;59.51;;
81666;Laerm;71083;51.796;10.952;2024-01-15T01:24:23;55.25;30.38;71.70;;
81666;Laerm;71083;51.796;10.952;2024-01-15T01:26:48;57.57;30.99;74.99;;
81666;Laerm;71083;51.796;10.952;2024-01-15T01:29:14;58.29;29.41;77.16;;
81666;Laerm;71083;51.796;10.952;2024-01-15T01:31:43;41.32;30.08;60.03;;
81666;Laerm;71083;51.796;10.952;2024-01-15T01:34:09;33.10;29.30;44.79;;
81666;Laerm;71083;51.796;10.952;2024-01-15T01:36:34;62.91;30.70;79.04;;
81666;Laerm;71083;51.796;10.952;2024-01-15T01:38:59;58.66;30.47;73.06;;
81666;Laerm;71083;51.796;10.952;2024-01-15T01:41:24;60.64;32.69;74.58;;
81666;Laerm;71083;51.796;10.952;2024-01-15T01:43:50;53.79;32.36;70.23;;
81666;Laerm;71083;51.796;10.952;2024-01-15T01:46:15;55.50;33.54;72.39;;
81666;Laerm;71083;51.796;10.952;2024-01-15T01:48:41;56.99;31.44;74.11;;
81666;Laerm;71083;51.796;10.952;2024-01-15T01:51:06;55.12;30.97;71.67;;
81666;Laerm;71083;51.796;10.952;2024-01-15T01:53:33;39.92;30.66;59.32;;
81666;Laerm;71083;51.796;10.952;2024-01-15T01:55:59;60.38;33.32;76.59;;
81666;Laerm;71083;51.796;10.952;2024-01-15T01:58:26;42.55;31.81;56.29;;
81666;Laerm;71083;51.796;10.952;2024-01-15T02:00:52;35.60;31.50;47.77;;
81666;Laerm;71083;51.796;10.952;2024-01-15T02:03:18;37.47;32.66;51.16;;
81666;Laerm;71083;51.796;10.952;2024-01-15T02:05:43;38.13;32.45;50.28;;
81666;Laerm;71083;51.796;10.952;2024-01-15T02:08:09;61.18;31.14;79.13;;
81666;Laerm;71083;51.796;10.952;2024-01-15T02:10:35;45.98;32.41;60.59;;
81666;Laerm;71083;51.796;10.952;2024-01-15T02:13:00;61.72;33.71;73.81;;
81666;Laerm;71083;51.796;10.952;2024-01-15T02:15:25;54.31;36.20;69.91;;
81666;Laerm;71083;51.796;10.952;2024-01-15T02:18:01;42.71;34.71;57.45;;
81666;Laerm;71083;51.796;10.952;2024-01-15T02:20:27;40.08;31.40;56.69;;
81666;Laerm;71083;51.796;10.952;2024-01-15T02:22:53;65.73;32.74;81.65;;
81666;Laerm;71083;51.796;10.952;2024-01-15T02:25:18;65.87;33.00;77.17;;
81666;Laerm;71083;51.796;10.952;2024-01-15T02:27:44;39.45;33.65;50.19;;
81666;Laerm;71083;51.796;10.952;2024-01-15T02:30:11;40.92;34.17;51.25;;
81666;Laerm;71083;51.796;10.952;2024-01-15T02:32:36;61.49;35.23;76.37;;
81666;Laerm;71083;51.796;10.952;2024-01-15T02:35:02;38.50;31.00;52.51;;
81666;Laerm;71083;51.796;10.952;2024-01-15T02:37:27;58.00;33.40;76.79;;
81666;Laerm;71083;51.796;10.952;2024-01-15T02:39:53;57.83;32.99;77.02;;
81666;Laerm;71083;51.796;10.952;2024-01-15T02:42:18;50.43;36.33;71.03;;
81666;Laerm;71083;51.796;10.952;2024-01-15T02:44:43;62.35;36.11;74.49;;
81666;Laerm;71083;51.796;10.952;2024-01-15T02:47:09;58.58;35.14;72.13;;
81666;Laerm;71083;51.796;10.952;2024-01-15T02:49:34;49.68;36.88;65.68;;
81666;Laerm;71083;51.796;10.952;2024-01-15T02:51:59;53.89;35.81;68.06;;
81666;Laerm;71083;51.796;10.952;2024-01-15T02:54:24;44.83;35.63;63.29;;
81666;Laerm;71083;51.796;10.952;2024-01-15T02:56:50;59.06;35.01;75.43;;
81666;Laerm;71083;51.796;10.952;2024-01-15T02:59:15;58.31;31.27;76.09;;
81666;Laerm;71083;51.796;10.952;2024-01-15T03:01:40;43.10;32.43;62.16;;
81666;Laerm;71083;51.796;10.952;2024-01-15T03:04:06;56.42;34.32;70.01;;
81666;Laerm;71083;51.796;10.952;2024-01-15T03:06:31;62.65;34.81;77.24;;
81666;Laerm;71083;51.796;10.952;2024-01-15T03:08:56;61.01;32.07;77.44;;
81666;Laerm;71083;51.796;10.952;2024-01-15T03:11:22;61.73;35.93;76.68;;
81666;Laerm;71083;51.796;10.952;2024-01-15T03:13:47;59.25;33.61;72.49;;
81666;Laerm;71083;51.796;10.952;2024-01-15T03:16:13;60.38;35.16;72.27;;
81666;Laerm;71083;51.796;10.952;2024-01-15T03:18:39;65.14;37.48;79.40;;
81666;Laerm;71083;51.796;10.952;2024-01-15T03:21:04;64.02;35.32;76.41;;
81666;Laerm;71083;51.796;10.952;2024-01-15T03:23:30;58.01;35.15;70.97;;
81666;Laerm;71083;51.796;10.952;2024-01-15T03:25:55;55.38;36.72;71.62;;
81666;Laerm;71083;51.796;10.952;2024-01-15T03:28:20;61.72;39.06;82.90;;
81666;Laerm;71083;51.796;10.952;2024-01-15T03:30:46;64.84;39.34;80.78;;
81666;Laerm;71083;51.796;10.952;2024-01-15T03:33:11;56.37;35.71;72.08;;
81666;Laerm;71083;51.796;10.952;2024-01-15T03:35:36;63.57;41.03;73.28;;
81666;Laerm;71083;51.796;10.952;2024-01-15T03:38:01;62.30;37.65;72.99;;
81666;Laerm;71083;51.796;10.952;2024-01-15T03:40:27;63.50;38.97;75.46;;
81666;Laerm;71083;51.796;10.952;2024-01-15T03:42:53;57.35;37.20;70.47;;
81666;Laerm;71083;51.796;10.952;2024-01-15T03:45:19;60.94;41.93;70.78;;
81666;Laerm;71083;51.796;10.952;2024-01-15T03:47:44;61.85;41.46;76.28;;
81666;Laerm;71083;51.796;10.952;2024-01-15T03:50:09;67.78;44.07;80.03;;
81666;Laerm;71083;51.796;10.952;2024-01-15T03:52:34;62.93;39.02;74.89;;
81666;Laerm;71083;51.796;10.952;2024-01-15T03:55:00;61.89;38.14;74.34;;
81666;Laerm;71083;51.796;10.952;2024-01-15T03:57:25;67.88;42.38;85.35;;
81666;Laerm;71083;51.796;10.952;2024-01-15T03:59:50;66.08;41.42;80.36;;
81666;Laerm;71083;51.796;10.952;2024-01-15T04:02:16;61.11;39.65;73.77;;
81666;Laerm;71083;51.796;10.952;2024-01-15T04:04:42;83.03;40.90;102.65;;
81666;Laerm;71083;51.796;10.952;2024-01-15T04:07:08;60.71;38.61;73.09;;
81666;Laerm;71083;51.796;10.952;2024-01-15T04:09:33;61.71;38.62;74.56;;
81666;Laerm;71083;51.796;10.952;2024-01-15T04:11:59;67.95;40.43;80.91;;
81666;Laerm;71083;51.796;10.952;2024-01-15T04:14:24;63.68;38.94;75.59;;
81666;Laerm;71083;51.796;10.952;2024-01-15T04:16:49;64.94;39.79;78.71;;
81666;Laerm;71083;51.796;10.952;2024-01-15T04:19:15;66.18;41.50;81.01;;
81666;Laerm;71083;51.796;10.952;2024-01-15T04:21:40;69.86;41.69;84.21;;
81666;Laerm;71083;51.796;10.952;2024-01-15T04:24:05;63.28;46.53;74.22;;
81666;Laerm;71083;51.796;10.952;2024-01-15T04:26:30;65.22;49.16;75.83;;
81666;Laerm;71083;51.796;10.952;2024-01-15T04:28:56;64.76;47.47;79.89;;
81666;Laerm;71083;51.796;10.952;2024-01-15T04:31:22;66.25;45.74;76.14;;
81666;Laerm;71083;51.796;10.952;2024-01-15T04:33:47;65.20;43.55;74.38;;
81666;Laerm;71083;51.796;10.952;2024-01-15T04:36:13;64.90;40.95;75.33;;
81666;Laerm;71083;51.796;10.952;2024-01-15T04:38:38;66.14;43.29;81.94;;
81666;Laerm;71083;51.796;10.952;2024-01-15T04:41:04;63.25;52.50;72.68;;
81666;Laerm;71083;51.796;10.952;2024-01-15T04:43:29;65.05;43.25;80.60;;
81666;Laerm;71083;51.796;10.952;2024-01-15T04:45:55;67.04;42.84;82.24;;
81666;Laerm;71083;51.796;10.952;2024-01-15T04:48:20;66.35;42.72;74.43;;
81666;Laerm;71083;51.796;10.952;2024-01-15T04:50:47;67.41;51.15;76.71;;
81666;Laerm;71083;51.796;10.952;2024-01-15T04:53:13;65.68;39.59;76.87;;
81666;Laerm;71083;51.796;10.952;2024-01-15T04:55:38;67.06;46.14;84.60;;
81666;Laerm;71083;51.796;10.952;2024-01-15T04:58:04;63.74;42.78;74.15;;
81666;Laerm;71083;51.796;10.952;2024-01-15T05:00:29;63.09;41.11;72.88;;
81666;Laerm;71083;51.796;10.952;2024-01-15T05:02:54;66.35;48.58;79.60;;
81666;Laerm;71083;51.796;10.952;2024-01-15T05:05:21;63.08;38.39;75.66;;
81666;Laerm;71083;51.796;10.952;2024-01-15T05:07:46;66.94;42.04;75.86;;
81666;Laerm;71083;51.796;10.952;2024-01-15T05:10:12;66.25;41.62;79.50;;
81666;Laerm;71083;51.796;10.952;2024-01-15T05:12:37;67.64;49.55;76.74;;
81666;Laerm;71083;51.796;10.952;2024-01-15T05:15:03;65.93;43.94;74.73;;
81666;Laerm;71083;51.796;10.952;2024-01-15T05:17:28;65.06;44.39;75.24;;
81666;Laerm;71083;51.796;10.952;2024-01-15T05:19:53;66.91;40.00;76.16;;
81666;Laerm;71083;51.796;10.952;2024-01-15T05:22:19;67.44;42.89;78.42;;
81666;Laerm;71083;51.796;10.952;2024-01-15T05:24:46;66.39;50.24;79.99;;
81666;Laerm;71083;51.796;10.952;2024-01-15T05:27:11;68.57;47.23;79.32;;
81666;Laerm;71083;51.796;10.952;2024-01-15T05:29:36;67.50;46.70;78.01;;
81666;Laerm;71083;51.796;10.952;2024-01-15T05:32:02;67.35;52.34;81.20;;
81666;Laerm;71083;51.796;10.952;2024-01-15T05:34:27;66.49;44.71;77.82;;
81666;Laerm;71083;51.796;10.952;2024-01-15T05:36:52;66.36;46.73;78.38;;
81666;Laerm;71083;51.796;10.952;2024-01-15T05:39:18;67.44;52.60;75.82;;
81666;Laerm;71083;51.796;10.952;2024-01-15T05:41:43;67.01;43.00;78.14;;
81666;Laerm;71083;51.796;10.952;2024-01-15T05:44:08;65.99;47.73;78.19;;
81666;Laerm;71083;51.796;10.952;2024-01-15T05:46:35;67.52;49.59;74.34;;
81666;Laerm;71083;51.796;10.952;2024-01-15T05:49:00;66.06;50.40;75.02;;
81666;Laerm;71083;51.796;10.952;2024-01-15T05:51:25;67.86;50.44;74.12;;
81666;Laerm;71083;51.796;10.952;2024-01-15T05:53:51;68.58;49.54;77.37;;
81666;Laerm;71083;51.796;10.952;2024-01-15T05:56:16;69.18;56.86;78.26;;
81666;Laerm;71083;51.796;10.952;2024-01-15T05:58:41;65.43;48.61;73.41;;
81666;Laerm;71083;51.796;10.952;2024-01-15T06:01:07;65.32;54.75;74.09;;
81666;Laerm;71083;51.796;10.952;2024-01-15T06:03:32;69.43;52.90;78.87;;
81666;Laerm;71083;51.796;10.952;2024-01-15T06:05:57;66.95;52.20;74.30;;
81666;Laerm;71083;51.796;10.952;2024-01-15T06:08:22;67.55;53.45;79.48;;
81666;Laerm;71083;51.796;10.952;2024-01-15T06:10:48;66.61;49.53;75.92;;
81666;Laerm;71083;51.796;10.952;2024-01-15T06:13:13;65.97;54.91;79.53;;
81666;Laerm;71083;51.796;10.952;2024-01-15T06:15:38;67.45;51.87;74.14;;
81666;Laerm;71083;51.796;10.952;2024-01-15T06:18:04;66.23;46.58;74.59;;
81666;Laerm;71083;51.796;10.952;2024-01-15T06:20:29;68.32;50.64;76.44;;
81666;Laerm;71083;51.796;10.952;2024-01-15T06:22:55;68.30;51.85;83.73;;
81666;Laerm;71083;51.796;10.952;2024-01-15T06:25:20;68.49;52.46;78.49;;
81666;Laerm;71083;51.796;10.952;2024-01-15T06:27:45;68.66;51.74;76.14;;
81666;Laerm;71083;51.796;10.952;2024-01-15T06:30:11;67.15;48.64;73.89;;
81666;Laerm;71083;51.796;10.952;2024-01-15T06:32:36;66.48;50.41;73.39;;
81666;Laerm;71083;51.796;10.952;2024-01-15T06:35:02;67.86;53.38;83.01;;
81666;Laerm;71083;51.796;10.952;2024-01-15T06:37:27;67.69;51.80;81.43;;
81666;Laerm;71083;51.796;10.952;2024-01-15T06:39:52;65.76;52.94;76.28;;
81666;Laerm;71083;51.796;10.952;2024-01-15T06:42:18;65.36;51.12;75.72;;
81666;Laerm;71083;51.796;10.952;2024-01-15T06:44:43;65.10;43.99;73.74;;
81666;Laerm;71083;51.796;10.952;2024-01-15T06:47:09;74.77;52.13;88.80;;
81666;Laerm;71083;51.796;10.952;2024-01-15T06:49:34;67.14;52.87;85.64;;
81666;Laerm;71083;51.796;10.952;2024-01-15T06:51:59;65.78;50.08;73.37;;
81666;Laerm;71083;51.796;10.952;2024-01-15T06:54:25;79.03;52.54;99.34;;
81666;Laerm;71083;51.796;10.952;2024-01-15T06:56:51;67.90;46.07;75.95;;
81666;Laerm;71083;51.796;10.952;2024-01-15T06:59:16;66.70;48.15;77.68;;
81666;Laerm;71083;51.796;10.952;2024-01-15T07:01:42;67.32;49.88;74.21;;
81666;Laerm;71083;51.796;10.952;2024-01-15T07:04:07;67.75;46.95;78.04;;
81666;Laerm;71083;51.796;10.952;2024-01-15T07:06:33;67.69;47.89;81.06;;
81666;Laerm;71083;51.796;10.952;2024-01-15T07:08:58;65.15;53.86;77.47;;
81666;Laerm;71083;51.796;10.952;2024-01-15T07:11:24;66.58;52.08;78.01;;
81666;Laerm;71083;51.796;10.952;2024-01-15T07:13:49;66.15;43.74;73.95;;
81666;Laerm;71083;51.796;10.952;2024-01-15T07:16:14;67.16;51.49;75.11;;
81666;Laerm;71083;51.796;10.952;2024-01-15T07:18:43;67.27;54.18;75.97;;
81666;Laerm;71083;51.796;10.952;2024-01-15T07:21:09;65.74;42.70;73.95;;
81666;Laerm;71083;51.796;10.952;2024-01-15T07:23:34;77.91;51.67;93.73;;
81666;Laerm;71083;51.796;10.952;2024-01-15T07:25:59;66.28;50.48;78.98;;
81666;Laerm;71083;51.796;10.952;2024-01-15T07:28:25;65.74;54.62;73.42;;
81666;Laerm;71083;51.796;10.952;2024-01-15T07:30:50;64.31;47.41;76.45;;
81666;Laerm;71083;51.796;10.952;2024-01-15T07:33:16;65.78;48.57;78.43;;
81666;Laerm;71083;51.796;10.952;2024-01-15T07:35:41;67.55;49.86;79.60;;
81666;Laerm;71083;51.796;10.952;2024-01-15T07:38:06;68.15;52.29;78.12;;
81666;Laerm;71083;51.796;10.952;2024-01-15T07:40:32;67.89;43.38;79.14;;
81666;Laerm;71083;51.796;10.952;2024-01-15T07:42:57;68.87;51.76;83.38;;
81666;Laerm;71083;51.796;10.952;2024-01-15T07:45:22;64.93;43.05;73.73;;
81666;Laerm;71083;51.796;10.952;2024-01-15T07:47:47;66.63;42.10;78.29;;
81666;Laerm;71083;51.796;10.952;2024-01-15T07:50:14;66.95;49.77;75.04;;
81666;Laerm;71083;51.796;10.952;2024-01-15T07:52:40;65.27;47.45;73.94;;
81666;Laerm;71083;51.796;10.952;2024-01-15T07:55:07;67.04;49.61;77.04;;
81666;Laerm;71083;51.796;10.952;2024-01-15T07:57:32;67.41;51.16;76.45;;
81666;Laerm;71083;51.796;10.952;2024-01-15T07:59:57;68.33;44.21;78.16;;
81666;Laerm;71083;51.796;10.952;2024-01-15T08:02:23;66.37;49.42;75.40;;
81666;Laerm;71083;51.796;10.952;2024-01-15T08:04:48;69.25;44.90;79.48;;
81666;Laerm;71083;51.796;10.952;2024-01-15T08:07:13;65.82;49.83;74.21;;
81666;Laerm;71083;51.796;10.952;2024-01-15T08:09:39;67.70;42.49;80.52;;
81666;Laerm;71083;51.796;10.952;2024-01-15T08:12:04;67.46;42.44;83.76;;
81666;Laerm;71083;51.796;10.952;2024-01-15T08:14:31;64.71;42.65;71.13;;
81666;Laerm;71083;51.796;10.952;2024-01-15T08:16:56;67.13;41.72;75.37;;
81666;Laerm;71083;51.796;10.952;2024-01-15T08:19:21;66.66;46.74;75.18;;
81666;Laerm;71083;51.796;10.952;2024-01-15T08:21:47;67.62;52.17;77.09;;
81666;Laerm;71083;51.796;10.952;2024-01-15T08:24:12;66.28;42.16;73.64;;
81666;Laerm;71083;51.796;10.952;2024-01-15T08:26:37;68.42;43.64;79.54;;
81666;Laerm;71083;51.796;10.952;2024-01-15T08:29:03;67.56;54.99;74.64;;
81666;Laerm;71083;51.796;10.952;2024-01-15T08:31:28;69.34;48.92;88.75;;
81666;Laerm;71083;51.796;10.952;2024-01-15T08:33:53;65.77;47.32;74.35;;
81666;Laerm;71083;51.796;10.952;2024-01-15T08:36:19;68.23;46.77;76.17;;
81666;Laerm;71083;51.796;10.952;2024-01-15T08:38:44;65.70;41.77;74.31;;
81666;Laerm;71083;51.796;10.952;2024-01-15T08:41:10;69.08;42.85;80.76;;
81666;Laerm;71083;51.796;10.952;2024-01-15T08:43:35;66.30;46.05;75.29;;
81666;Laerm;71083;51.796;10.952;2024-01-15T08:46:00;68.85;51.72;83.33;;
81666;Laerm;71083;51.796;10.952;2024-01-15T08:48:26;66.32;42.99;72.85;;
81666;Laerm;71083;51.796;10.952;2024-01-15T08:50:55;67.72;43.28;78.22;;
81666;Laerm;71083;51.796;10.952;2024-01-15T08:53:20;67.81;51.75;75.92;;
81666;Laerm;71083;51.796;10.952;2024-01-15T08:55:46;68.18;57.93;79.21;;
81666;Laerm;71083;51.796;10.952;2024-01-15T08:58:11;69.23;52.00;79.65;;
81666;Laerm;71083;51.796;10.952;2024-01-15T09:00:37;69.40;44.20;80.71;;
81666;Laerm;71083;51.796;10.952;2024-01-15T09:03:02;68.30;49.28;75.38;;
81666;Laerm;71083;51.796;10.952;2024-01-15T09:05:28;63.83;44.05;74.73;;
81666;Laerm;71083;51.796;10.952;2024-01-15T09:07:54;67.98;47.35;78.18;;
81666;Laerm;71083;51.796;10.952;2024-01-15T09:10:20;66.80;53.30;74.55;;
81666;Laerm;71083;51.796;10.952;2024-01-15T09:12:45;68.20;46.54;75.28;;
81666;Laerm;71083;51.796;10.952;2024-01-15T09:15:11;66.29;43.11;73.71;;
81666;Laerm;71083;51.796;10.952;2024-01-15T09:17:36;66.73;50.58;73.23;;
81666;Laerm;71083;51.796;10.952;2024-01-15T09:20:01;68.88;59.29;78.28;;
81666;Laerm;71083;51.796;10.952;2024-01-15T09:22:29;66.84;47.31;75.67;;
81666;Laerm;71083;51.796;10.952;2024-01-15T09:24:54;68.58;48.80;81.26;;
81666;Laerm;71083;51.796;10.952;2024-01-15T09:27:20;68.99;42.23;78.46;;
81666;Laerm;71083;51.796;10.952;2024-01-15T09:29:45;67.28;49.57;74.56;;
81666;Laerm;71083;51.796;10.952;2024-01-15T09:32:11;67.24;44.30;73.58;;
81666;Laerm;71083;51.796;10.952;2024-01-15T09:34:37;67.18;46.08;76.01;;
81666;Laerm;71083;51.796;10.952;2024-01-15T09:37:03;69.85;47.54;81.12;;
81666;Laerm;71083;51.796;10.952;2024-01-15T09:39:29;66.54;51.80;74.68;;
81666;Laerm;71083;51.796;10.952;2024-01-15T09:41:55;68.52;51.41;80.61;;
81666;Laerm;71083;51.796;10.952;2024-01-15T09:44:21;69.01;52.76;75.97;;
81666;Laerm;71083;51.796;10.952;2024-01-15T09:46:47;67.84;48.11;76.88;;
81666;Laerm;71083;51.796;10.952;2024-01-15T09:49:15;68.07;46.93;75.56;;
81666;Laerm;71083;51.796;10.952;2024-01-15T09:51:41;68.78;47.61;79.44;;
81666;Laerm;71083;51.796;10.952;2024-01-15T09:54:07;69.50;54.77;81.01;;
81666;Laerm;71083;51.796;10.952;2024-01-15T09:56:34;69.44;52.03;78.34;;
81666;Laerm;71083;51.796;10.952;2024-01-15T09:59:00;67.24;51.22;74.59;;
81666;Laerm;71083;51.796;10.952;2024-01-15T10:01:25;67.47;54.55;74.87;;
81666;Laerm;71083;51.796;10.952;2024-01-15T10:03:51;67.87;51.24;75.30;;
81666;Laerm;71083;51.796;10.952;2024-01-15T10:06:16;67.43;48.96;77.43;;
81666;Laerm;71083;51.796;10.952;2024-01-15T10:08:43;66.96;43.27;76.06;;
81666;Laerm;71083;51.796;10.952;2024-01-15T10:11:11;67.15;46.41;75.41;;
81666;Laerm;71083;51.796;10.952;2024-01-15T10:13:36;68.94;50.95;79.01;;
81666;Laerm;71083;51.796;10.952;2024-01-15T10:16:02;67.47;49.97;75.11;;
81666;Laerm;71083;51.796;10.952;2024-01-15T10:18:28;69.89;56.39;77.72;;
81666;Laerm;71083;51.796;10.952;2024-01-15T10:20:53;65.98;47.96;75.34;;
81666;Laerm;71083;51.796;10.952;2024-01-15T10:23:19;69.31;48.81;82.47;;
81666;Laerm;71083;51.796;10.952;2024-01-15T10:25:44;69.84;49.44;76.96;;
81666;Laerm;71083;51.796;10.952;2024-01-15T10:28:09;66.92;49.14;75.29;;
81666;Laerm;71083;51.796;10.952;2024-01-15T10:30:35;67.43;50.35;76.37;;
81666;Laerm;71083;51.796;10.952;2024-01-15T10:33:01;68.26;47.60;80.33;;
81666;Laerm;71083;51.796;10.952;2024-01-15T10:35:33;67.40;45.22;75.06;;
81666;Laerm;71083;51.796;10.952;2024-01-15T10:37:59;69.34;53.62;78.91;;
81666;Laerm;71083;51.796;10.952;2024-01-15T10:40:24;68.37;52.47;77.93;;
81666;Laerm;71083;51.796;10.952;2024-01-15T10:42:50;68.67;44.83;75.51;;
81666;Laerm;71083;51.796;10.952;2024-01-15T10:45:15;69.15;47.06;81.21;;
81666;Laerm;71083;51.796;10.952;2024-01-15T10:47:41;67.28;49.08;81.37;;
81666;Laerm;71083;51.796;10.952;2024-01-15T10:50:07;70.28;50.97;83.18;;
81666;Laerm;71083;51.796;10.952;2024-01-15T10:52:34;68.33;47.34;80.07;;
81666;Laerm;71083;51.796;10.952;2024-01-15T10:54:59;68.39;47.77;77.42;;
81666;Laerm;71083;51.796;10.952;2024-01-15T10:57:25;67.55;46.93;78.43;;
81666;Laerm;71083;51.796;10.952;2024-01-15T10:59:51;68.03;51.51;77.74;;
81666;Laerm;71083;51.796;10.952;2024-01-15T11:02:16;69.50;49.31;81.21;;
81666;Laerm;71083;51.796;10.952;2024-01-15T11:04:42;68.06;44.37;75.95;;
81666;Laerm;71083;51.796;10.952;2024-01-15T11:07:07;68.06;45.68;83.17;;
81666;Laerm;71083;51.796;10.952;2024-01-15T11:09:33;68.23;46.09;80.23;;
81666;Laerm;71083;51.796;10.952;2024-01-15T11:12:06;70.21;52.20;86.95;;
81666;Laerm;71083;51.796;10.952;2024-01-15T11:14:35;66.07;42.95;74.71;;
81666;Laerm;71083;51.796;10.952;2024-01-15T11:17:04;68.99;46.51;77.51;;
81666;Laerm;71083;51.796;10.952;2024-01-15T11:19:36;66.45;53.17;72.66;;
81666;Laerm;71083;51.796;10.952;2024-01-15T11:22:02;69.46;45.57;78.59;;
81666;Laerm;71083;51.796;10.952;2024-01-15T11:24:33;66.79;48.63;75.21;;
81666;Laerm;71083;51.796;10.952;2024-01-15T11:26:58;67.51;48.68;75.63;;
81666;Laerm;71083;51.796;10.952;2024-01-15T11:34:20;66.22;49.17;73.90;;
81666;Laerm;71083;51.796;10.952;2024-01-15T11:41:54;65.68;44.80;73.68;;
81666;Laerm;71083;51.796;10.952;2024-01-15T11:44:20;67.33;45.67;74.14;;
81666;Laerm;71083;51.796;10.952;2024-01-15T11:46:47;69.13;48.30;79.19;;
81666;Laerm;71083;51.796;10.952;2024-01-15T11:49:23;67.19;47.79;80.98;;
81666;Laerm;71083;51.796;10.952;2024-01-15T11:51:52;65.28;45.72;76.09;;
81666;Laerm;71083;51.796;10.952;2024-01-15T11:54:19;72.11;47.75;94.22;;
81666;Laerm;71083;51.796;10.952;2024-01-15T11:56:46;66.15;46.95;73.11;;
81666;Laerm;71083;51.796;10.952;2024-01-15T11:59:11;66.75;50.72;74.90;;
81666;Laerm;71083;51.796;10.952;2024-01-15T12:01:36;67.60;49.21;75.47;;
81666;Laerm;71083;51.796;10.952;2024-01-15T12:04:02;65.90;46.52;72.51;;
81666;Laerm;71083;51.796;10.952;2024-01-15T12:06:27;68.12;49.49;79.00;;
81666;Laerm;71083;51.796;10.952;2024-01-15T12:09:05;65.71;47.67;76.30;;
81666;Laerm;71083;51.796;10.952;2024-01-15T12:11:31;67.27;50.09;77.17;;
81666;Laerm;71083;51.796;10.952;2024-01-15T12:13:58;67.63;46.84;75.54;;
81666;Laerm;71083;51.796;10.952;2024-01-15T12:16:24;68.28;46.87;77.27;;
81666;Laerm;71083;51.796;10.952;2024-01-15T12:18:50;65.88;41.24;77.87;;
81666;Laerm;71083;51.796;10.952;2024-01-15T12:21:16;68.31;45.92;79.64;;
81666;Laerm;71083;51.796;10.952;2024-01-15T12:23:45;69.91;55.48;81.76;;
81666;Laerm;71083;51.796;10.952;2024-01-15T12:26:11;68.04;47.66;76.10;;
81666;Laerm;71083;51.796;10.952;2024-01-15T12:28:36;68.09;46.21;80.20;;
81666;Laerm;71083;51.796;10.952;2024-01-15T12:31:01;68.33;53.59;78.57;;
81666;Laerm;71083;51.796;10.952;2024-01-15T12:33:30;68.66;42.61;75.84;;
81666;Laerm;71083;51.796;10.952;2024-01-15T12:35:56;67.79;44.35;75.22;;
81666;Laerm;71083;51.796;10.952;2024-01-15T12:38:21;66.34;49.96;73.79;;
81666;Laerm;71083;51.796;10.952;2024-01-15T12:40:47;68.78;43.63;79.55;;
81666;Laerm;71083;51.796;10.952;2024-01-15T12:43:13;65.81;47.96;75.87;;
81666;Laerm;71083;51.796;10.952;2024-01-15T12:45:38;68.78;42.89;83.32;;
81666;Laerm;71083;51.796;10.952;2024-01-15T12:48:04;70.60;51.37;89.68;;
81666;Laerm;71083;51.796;10.952;2024-01-15T12:50:29;68.14;45.18;81.73;;
81666;Laerm;71083;51.796;10.952;2024-01-15T12:52:54;67.42;44.63;75.32;;
81666;Laerm;71083;51.796;10.952;2024-01-15T12:55:20;67.42;50.39;76.02;;
81666;Laerm;71083;51.796;10.952;2024-01-15T12:57:45;76.54;45.11;97.93;;
81666;Laerm;71083;51.796;10.952;2024-01-15T13:00:10;67.54;50.92;75.36;;
81666;Laerm;71083;51.796;10.952;2024-01-15T13:02:37;66.92;49.69;76.16;;
81666;Laerm;71083;51.796;10.952;2024-01-15T13:05:03;67.91;47.02;75.04;;
81666;Laerm;71083;51.796;10.952;2024-01-15T13:07:29;65.56;48.75;75.99;;
81666;Laerm;71083;51.796;10.952;2024-01-15T13:09:54;67.05;46.89;75.54;;
81666;Laerm;71083;51.796;10.952;2024-01-15T13:12:20;67.94;43.26;76.50;;
81666;Laerm;71083;51.796;10.952;2024-01-15T13:14:45;66.57;43.54;75.16;;
81666;Laerm;71083;51.796;10.952;2024-01-15T13:17:12;68.48;55.53;76.20;;
81666;Laerm;71083;51.796;10.952;2024-01-15T13:19:37;67.92;45.22;75.82;;
81666;Laerm;71083;51.796;10.952;2024-01-15T13:22:04;66.90;47.57;74.69;;
81666;Laerm;71083;51.796;10.952;2024-01-15T13:24:31;67.99;47.54;76.73;;
81666;Laerm;71083;51.796;10.952;2024-01-15T13:26:57;67.37;51.08;75.01;;
81666;Laerm;71083;51.796;10.952;2024-01-15T13:29:22;67.94;53.27;75.71;;
81666;Laerm;71083;51.796;10.952;2024-01-15T13:31:48;68.16;48.78;76.41;;
81666;Laerm;71083;51.796;10.952;2024-01-15T13:34:13;67.19;42.63;75.84;;